createdAt,value
2022-08-05T00:01:36.328Z,101596.94
2022-08-05T00:04:16.654Z,101604.31
2022-08-05T00:06:44.701Z,101616.69
2022-08-05T00:09:15.815Z,101628.47
2022-08-05T00:11:49.337Z,101621.06
2022-08-05T00:14:22.645Z,101611.34
2022-08-05T00:16:54.308Z,101608.88
2022-08-05T00:19:22.541Z,101614.09
2022-08-05T00:21:49.811Z,101612.53
2022-08-05T00:24:24.248Z,101615.50
2022-08-05T00:26:53.138Z,101612.91
2022-08-05T00:29:25.267Z,101609.84
2022-08-05T00:32:13.385Z,101606.25
2022-08-05T00:34:53.547Z,101604.63
2022-08-05T00:37:51.267Z,101595.56
2022-08-05T00:40:14.058Z,101599.13
2022-08-05T00:42:44.467Z,101613.66
2022-08-05T00:45:15.703Z,101617.13
2022-08-05T00:47:56.729Z,101610.13
2022-08-05T00:50:25.323Z,101611.94
2022-08-05T00:52:53.351Z,101601.97
2022-08-05T00:55:21.393Z,101613.72
2022-08-05T00:57:58.089Z,101613.25
2022-08-05T01:00:28.192Z,101611.00
2022-08-05T01:02:55.801Z,101595.19
2022-08-05T01:05:22.812Z,101606.13
2022-08-05T01:08:30.322Z,101599.00
2022-08-05T01:10:56.578Z,101609.34
2022-08-05T01:13:57.445Z,101611.63
2022-08-05T01:16:38.429Z,101609.25
2022-08-05T01:19:16.498Z,101609.25
2022-08-05T01:22:15.661Z,101608.41
2022-08-05T01:24:50.335Z,101611.16
2022-08-05T01:27:50.719Z,101607.81
2022-08-05T01:30:33.561Z,101601.28
2022-08-05T01:33:06.179Z,101611.38
2022-08-05T01:35:50.810Z,101624.94
2022-08-05T01:38:27.566Z,101616.38
2022-08-05T01:41:01.786Z,101612.44
2022-08-05T01:43:30.473Z,101615.44
2022-08-05T01:45:58.637Z,101621.16
2022-08-05T01:48:37.494Z,101627.66
2022-08-05T01:51:12.124Z,101623.28
2022-08-05T01:53:54.549Z,101632.09
2022-08-05T01:58:10.550Z,101641.59
2022-08-05T01:59:15.455Z,101631.47
2022-08-05T02:01:43.830Z,101635.66
2022-08-05T02:04:14.765Z,101635.31
2022-08-05T02:06:41.233Z,101631.13
2022-08-05T02:09:11.951Z,101629.84
2022-08-05T02:11:52.315Z,101636.97
2022-08-05T02:14:28.703Z,101624.38
2022-08-05T02:17:05.058Z,101623.53
2022-08-05T02:19:35.093Z,101620.53
2022-08-05T02:22:26.520Z,101623.53
2022-08-05T02:25:02.338Z,101617.09
2022-08-05T02:27:58.307Z,101619.75
2022-08-05T02:30:20.590Z,101617.94
2022-08-05T02:32:51.152Z,101617.38
2022-08-05T02:35:27.714Z,101618.81
2022-08-05T02:37:56.683Z,101615.94
2022-08-05T02:40:27.537Z,101610.47
2022-08-05T02:42:55.881Z,101607.28
2022-08-05T02:45:28.549Z,101616.91
2022-08-05T02:48:15.892Z,101612.16
2022-08-05T02:50:47.060Z,101608.59
2022-08-05T02:53:16.040Z,101617.97
2022-08-05T02:55:52.065Z,101608.97
2022-08-05T02:58:27.359Z,101617.88
2022-08-05T03:00:56.772Z,101607.63
2022-08-05T03:03:23.931Z,101606.78
2022-08-05T03:06:55.283Z,101601.94
2022-08-05T03:08:42.547Z,101600.28
2022-08-05T03:11:54.309Z,101597.78
2022-08-05T03:14:07.989Z,101602.16
2022-08-05T03:16:35.608Z,101604.66
2022-08-05T03:19:03.471Z,101595.50
2022-08-05T03:21:41.506Z,101601.81
2022-08-05T03:24:17.233Z,101605.94
2022-08-05T03:26:43.746Z,101609.16
2022-08-05T03:29:17.314Z,101613.56
2022-08-05T03:31:57.058Z,101620.44
2022-08-05T03:34:28.216Z,101606.56
2022-08-05T03:36:55.355Z,101616.47
2022-08-05T03:39:27.165Z,101619.47
2022-08-05T03:41:56.359Z,101618.19
2022-08-05T03:44:23.842Z,101614.75
2022-08-05T03:46:50.343Z,101610.69
2022-08-05T03:49:16.990Z,101609.06
2022-08-05T03:52:39.424Z,101605.13
2022-08-05T03:56:04.042Z,101618.19
2022-08-05T03:58:02.157Z,101625.16
2022-08-05T04:00:32.149Z,101619.09
2022-08-05T04:03:01.285Z,101631.31
2022-08-05T04:05:33.156Z,101633.00
2022-08-05T04:08:29.954Z,101621.25
2022-08-05T04:10:54.536Z,101623.72
2022-08-05T04:13:21.731Z,101617.53
2022-08-05T04:16:02.945Z,101632.72
2022-08-05T04:18:32.040Z,101625.00
2022-08-05T04:20:58.761Z,101624.03
2022-08-05T04:24:04.836Z,101619.03
2022-08-05T04:26:15.160Z,101613.38
2022-08-05T04:28:50.830Z,101616.09
2022-08-05T04:31:18.554Z,101616.69
2022-08-05T04:34:19.235Z,101628.78
2022-08-05T04:36:45.768Z,101629.41
2022-08-05T04:39:16.602Z,101634.88
2022-08-05T04:41:43.053Z,101636.16
2022-08-05T04:44:12.043Z,101637.44
2022-08-05T04:46:38.747Z,101636.16
2022-08-05T04:49:12.400Z,101639.13
2022-08-05T04:51:41.197Z,101635.56
2022-08-05T04:54:09.094Z,101643.53
2022-08-05T04:56:37.376Z,101643.28
2022-08-05T04:59:22.009Z,101631.97
2022-08-05T05:02:35.575Z,101636.94
2022-08-05T05:04:47.776Z,101638.03
2022-08-05T05:07:17.515Z,101635.53
2022-08-05T05:09:45.001Z,101634.00
2022-08-05T05:12:11.743Z,101643.59
2022-08-05T05:14:38.366Z,101632.94
2022-08-05T05:17:19.864Z,101632.69
2022-08-05T05:19:50.211Z,101630.56
2022-08-05T05:22:22.789Z,101633.75
2022-08-05T05:24:56.916Z,101645.13
2022-08-05T05:27:24.992Z,101647.88
2022-08-05T05:30:09.149Z,101644.31
2022-08-05T05:32:55.542Z,101657.84
2022-08-05T05:35:23.150Z,101643.72
2022-08-05T05:38:00.155Z,101648.94
2022-08-05T05:40:28.536Z,101646.81
2022-08-05T05:42:55.455Z,101649.31
2022-08-05T05:45:24.532Z,101646.34
2022-08-05T05:48:06.246Z,101642.06
2022-08-05T05:50:44.032Z,101651.72
2022-08-05T05:53:22.076Z,101657.63
2022-08-05T05:55:51.744Z,101649.91
2022-08-05T05:58:30.328Z,101641.50
2022-08-05T06:01:12.171Z,101647.69
2022-08-05T06:04:00.488Z,101646.63
2022-08-05T06:06:30.935Z,101646.16
2022-08-05T06:08:58.364Z,101643.56
2022-08-05T06:11:24.823Z,101653.53
2022-08-05T06:13:54.029Z,101656.81
2022-08-05T06:16:28.552Z,101655.03
2022-08-05T06:19:01.256Z,101662.97
2022-08-05T06:21:36.937Z,101666.19
2022-08-05T06:24:12.036Z,101661.34
2022-08-05T06:26:51.824Z,101662.16
2022-08-05T06:29:25.185Z,101666.56
2022-08-05T06:32:25.146Z,101672.16
2022-08-05T06:34:56.173Z,101662.41
2022-08-05T06:37:52.299Z,101672.84
2022-08-05T06:40:11.854Z,101681.75
2022-08-05T06:42:39.883Z,101679.38
2022-08-05T06:45:08.559Z,101685.94
2022-08-05T06:48:46.896Z,101688.66
2022-08-05T06:50:22.274Z,101695.19
2022-08-05T06:52:58.873Z,101696.25
2022-08-05T06:55:36.335Z,101693.50
2022-08-05T06:58:29.606Z,101694.47
2022-08-05T07:00:50.254Z,101687.91
2022-08-05T07:03:16.806Z,101693.88
2022-08-05T07:05:43.899Z,101691.03
2022-08-05T07:08:12.695Z,101688.19
2022-08-05T07:10:53.222Z,101686.50
2022-08-05T07:13:58.698Z,101688.78
2022-08-05T07:18:00.996Z,101693.41
2022-08-05T07:22:28.790Z,101706.16
2022-08-05T07:25:23.620Z,101707.53
2022-08-05T07:27:57.161Z,101719.28
2022-08-05T07:30:32.021Z,101719.06
2022-08-05T07:32:58.828Z,101724.19
2022-08-05T07:36:01.994Z,101715.41
2022-08-05T07:38:26.401Z,101729.34
2022-08-05T07:40:59.116Z,101738.47
2022-08-05T07:43:29.337Z,101737.66
2022-08-05T07:45:57.478Z,101744.19
2022-08-05T07:49:00.667Z,101741.94
2022-08-05T07:51:23.570Z,101750.13
2022-08-05T07:53:57.372Z,101756.31
2022-08-05T07:56:38.992Z,101767.97
2022-08-05T07:59:10.870Z,101762.59
2022-08-05T08:01:51.681Z,101756.75
2022-08-05T08:04:23.015Z,101771.63
2022-08-05T08:07:05.605Z,101771.41
2022-08-05T08:09:34.350Z,101780.50
2022-08-05T08:12:08.317Z,101778.03
2022-08-05T08:14:46.791Z,101784.78
2022-08-05T08:17:15.788Z,101784.31
2022-08-05T08:20:22.115Z,101785.16
2022-08-05T08:22:32.354Z,101786.09
2022-08-05T08:25:02.712Z,101784.09
2022-08-05T08:27:40.280Z,101786.50
2022-08-05T08:30:28.608Z,101790.44
2022-08-05T08:33:04.598Z,101791.03
2022-08-05T08:35:41.459Z,101792.91
2022-08-05T08:38:35.968Z,101787.59
2022-08-05T08:41:10.257Z,101796.16
2022-08-05T08:45:19.856Z,101788.78
2022-08-05T08:46:31.015Z,101797.47
2022-08-05T08:49:17.384Z,101797.22
2022-08-05T08:52:02.821Z,101794.25
2022-08-05T08:54:31.789Z,101807.31
2022-08-05T08:56:59.374Z,101809.59
2022-08-05T08:59:27.867Z,101805.31
2022-08-05T09:02:04.325Z,101809.25
2022-08-05T09:04:37.633Z,101813.63
2022-08-05T09:07:29.019Z,101825.41
2022-08-05T09:10:07.149Z,101826.84
2022-08-05T09:12:34.558Z,101829.59
2022-08-05T09:15:05.708Z,101827.56
2022-08-05T09:17:42.459Z,101823.88
2022-08-05T09:20:11.376Z,101827.28
2022-08-05T09:23:18.843Z,101826.94
2022-08-05T09:26:01.030Z,101843.13
2022-08-05T09:28:32.601Z,101841.44
2022-08-05T09:31:43.729Z,101846.44
2022-08-05T09:33:56.414Z,101839.31
2022-08-05T09:36:27.375Z,101842.66
2022-08-05T09:39:02.488Z,101836.47
2022-08-05T09:41:32.829Z,101846.69
2022-08-05T09:44:04.830Z,101841.13
2022-08-05T09:46:35.071Z,101847.78
2022-08-05T09:49:19.508Z,101853.63
2022-08-05T09:51:48.767Z,101852.16
2022-08-05T09:54:16.058Z,101858.47
2022-08-05T09:56:51.747Z,101856.09
2022-08-05T09:59:23.943Z,101857.88
2022-08-05T10:01:58.388Z,101862.16
2022-08-05T10:04:35.753Z,101869.75
2022-08-05T10:07:14.161Z,101873.78
2022-08-05T10:10:04.096Z,101881.25
2022-08-05T10:12:49.417Z,101874.94
2022-08-05T10:15:22.238Z,101875.56
2022-08-05T10:18:11.765Z,101877.00
2022-08-05T10:20:49.526Z,101883.19
2022-08-05T10:23:34.742Z,101889.84
2022-08-05T10:26:14.235Z,101893.06
2022-08-05T10:28:44.909Z,101899.94
2022-08-05T10:32:48.233Z,101898.75
2022-08-05T10:34:00.040Z,101894.34
2022-08-05T10:36:27.255Z,101903.53
2022-08-05T10:39:05.325Z,101906.59
2022-08-05T10:42:22.742Z,101905.75
2022-08-05T10:44:59.909Z,101913.38
2022-08-05T10:47:36.381Z,101917.03
2022-08-05T10:50:20.716Z,101921.22
2022-08-05T10:53:00.022Z,101931.69
2022-08-05T10:55:27.337Z,101929.78
2022-08-05T10:58:11.321Z,101943.06
2022-08-05T11:00:42.141Z,101941.78
2022-08-05T11:03:23.328Z,101940.94
2022-08-05T11:06:08.726Z,101951.03
2022-08-05T11:09:32.073Z,101952.25
2022-08-05T11:12:31.548Z,101952.41
2022-08-05T11:15:19.277Z,101947.38
2022-08-05T11:17:59.385Z,101954.22
2022-08-05T11:20:47.334Z,101953.72
2022-08-05T11:24:02.547Z,101966.94
2022-08-05T11:26:32.089Z,101967.31
2022-08-05T11:29:11.600Z,101975.50
2022-08-05T11:31:57.501Z,101972.16
2022-08-05T11:34:38.073Z,101986.13
2022-08-05T11:37:06.322Z,101991.47
2022-08-05T11:39:55.211Z,101986.84
2022-08-05T11:42:24.185Z,101990.63
2022-08-05T11:45:02.335Z,101998.59
2022-08-05T11:47:49.485Z,102003.41
2022-08-05T11:50:17.671Z,102006.28
2022-08-05T11:52:48.870Z,102010.44
2022-08-05T11:55:16.103Z,102005.13
2022-08-05T11:58:10.224Z,102008.25
2022-08-05T12:00:32.598Z,102004.69
2022-08-05T12:03:29.328Z,102009.44
2022-08-05T12:06:06.528Z,102009.66
2022-08-05T12:08:57.422Z,102010.50
2022-08-05T12:11:39.732Z,102013.16
2022-08-05T12:14:10.698Z,102013.38
2022-08-05T12:16:39.909Z,102011.00
2022-08-05T12:19:08.665Z,102023.78
2022-08-05T12:21:42.978Z,102014.25
2022-08-05T12:24:18.346Z,102016.16
2022-08-05T12:26:50.101Z,102020.41
2022-08-05T12:29:22.991Z,102022.25
2022-08-05T12:31:55.360Z,102032.00
2022-08-05T12:34:28.148Z,102037.47
2022-08-05T12:36:56.704Z,102032.16
2022-08-05T12:39:34.355Z,102041.56
2022-08-05T12:42:09.362Z,102036.69
2022-08-05T12:44:41.130Z,102043.59
2022-08-05T12:47:12.326Z,102038.63
2022-08-05T12:50:04.166Z,102046.97
2022-08-05T12:52:38.931Z,102054.97
2022-08-05T12:55:35.263Z,102053.13
2022-08-05T12:58:50.461Z,102057.88
2022-08-05T13:02:04.062Z,102055.78
2022-08-05T13:03:42.183Z,102054.72
2022-08-05T13:06:17.238Z,102052.72
2022-08-05T13:08:50.680Z,102055.22
2022-08-05T13:12:01.025Z,102066.50
2022-08-05T13:14:24.821Z,102055.41
2022-08-05T13:17:03.407Z,102062.97
2022-08-05T13:19:40.267Z,102069.00
2022-08-05T13:22:29.475Z,102075.19
2022-08-05T13:25:00.391Z,102060.69
2022-08-05T13:27:38.266Z,102062.97
2022-08-05T13:30:34.924Z,102062.66
2022-08-05T13:33:01.606Z,102069.69
2022-08-05T13:35:42.733Z,102069.25
2022-08-05T13:38:28.509Z,102075.56
2022-08-05T13:40:59.087Z,102080.31
2022-08-05T13:43:45.447Z,102095.34
2022-08-05T13:46:13.678Z,102102.06
2022-08-05T13:48:57.336Z,102106.22
2022-08-05T13:51:36.500Z,102105.09
2022-08-05T13:54:12.844Z,102109.00
2022-08-05T13:56:50.901Z,102107.38
2022-08-05T13:59:24.050Z,102112.19
2022-08-05T14:02:01.678Z,102113.69
2022-08-05T14:04:51.834Z,102116.28
2022-08-05T14:07:25.398Z,102108.50
2022-08-05T14:10:13.169Z,102115.19
2022-08-05T14:12:42.859Z,102124.97
2022-08-05T14:16:07.597Z,102119.25
2022-08-05T14:18:02.601Z,102125.78
2022-08-05T14:20:30.870Z,102137.19
2022-08-05T14:22:58.582Z,102130.13
2022-08-05T14:25:28.057Z,102136.91
2022-08-05T14:27:55.163Z,102143.34
2022-08-05T14:30:21.830Z,102146.97
2022-08-05T14:32:48.935Z,102159.25
2022-08-05T14:35:16.113Z,102157.94
2022-08-05T14:37:49.086Z,102155.69
2022-08-05T14:40:18.710Z,102162.13
2022-08-05T14:42:45.153Z,102163.44
2022-08-05T14:45:12.076Z,102164.47
2022-08-05T14:48:03.961Z,102163.88
2022-08-05T14:50:25.432Z,102169.81
2022-08-05T14:52:57.077Z,102167.88
2022-08-05T14:55:38.654Z,102177.28
2022-08-05T14:58:10.932Z,102173.03
2022-08-05T15:00:38.339Z,102171.13
2022-08-05T15:03:07.039Z,102166.50
2022-08-05T15:06:06.831Z,102166.94
2022-08-05T15:08:58.341Z,102171.19
2022-08-05T15:11:09.158Z,102179.47
2022-08-05T15:13:45.805Z,102169.44
2022-08-05T15:16:13.341Z,102170.50
2022-08-05T15:18:40.017Z,102180.03
2022-08-05T15:21:08.541Z,102176.69
2022-08-05T15:23:35.137Z,102190.91
2022-08-05T15:26:04.666Z,102185.44
2022-08-05T15:28:31.185Z,102194.09
2022-08-05T15:30:57.757Z,102193.06
2022-08-05T15:34:18.674Z,102189.41
2022-08-05T15:36:17.317Z,102190.31
2022-08-05T15:40:41.498Z,102194.88
2022-08-05T15:41:58.549Z,102191.19
2022-08-05T15:44:26.470Z,102196.44
2022-08-05T15:46:54.482Z,102199.84
2022-08-05T15:49:40.776Z,102204.25
2022-08-05T15:52:13.949Z,102205.97
2022-08-05T15:54:42.890Z,102205.38
2022-08-05T15:57:09.821Z,102204.06
2022-08-05T15:59:38.277Z,102213.88
2022-08-05T16:02:09.716Z,102209.47
2022-08-05T16:04:42.326Z,102209.63
2022-08-05T16:07:10.601Z,102217.53
2022-08-05T16:09:37.459Z,102214.97
2022-08-05T16:12:09.104Z,102217.84
2022-08-05T16:14:35.545Z,102226.75
2022-08-05T16:17:02.061Z,102227.41
2022-08-05T16:20:04.716Z,102224.25
2022-08-05T16:22:15.845Z,102235.59
2022-08-05T16:24:51.990Z,102229.75
2022-08-05T16:27:19.064Z,102229.97
2022-08-05T16:29:58.776Z,102233.59
2022-08-05T16:32:29.483Z,102231.09
2022-08-05T16:34:57.459Z,102228.75
2022-08-05T16:38:03.627Z,102232.00
2022-08-05T16:40:13.500Z,102241.13
2022-08-05T16:42:51.666Z,102245.56
2022-08-05T16:46:04.704Z,102251.50
2022-08-05T16:48:04.907Z,102260.13
2022-08-05T16:50:31.317Z,102254.78
2022-08-05T16:52:57.842Z,102254.44
2022-08-05T16:55:24.611Z,102247.06
2022-08-05T16:58:00.145Z,102256.28
2022-08-05T17:00:34.430Z,102256.38
2022-08-05T17:03:09.208Z,102263.75
2022-08-05T17:05:50.248Z,102261.19
2022-08-05T17:08:36.748Z,102258.91
2022-08-05T17:11:08.859Z,102263.13
2022-08-05T17:13:42.215Z,102258.13
2022-08-05T17:16:27.956Z,102268.47
2022-08-05T17:18:55.534Z,102275.22
2022-08-05T17:21:23.722Z,102264.72
2022-08-05T17:24:04.457Z,102269.75
2022-08-05T17:26:35.313Z,102266.78
2022-08-05T17:29:07.356Z,102271.03
2022-08-05T17:31:56.433Z,102267.47
2022-08-05T17:34:29.804Z,102279.50
2022-08-05T17:36:59.810Z,102275.75
2022-08-05T17:39:33.180Z,102270.28
2022-08-05T17:42:19.889Z,102267.34
2022-08-05T17:44:50.122Z,102275.09
2022-08-05T17:47:22.588Z,102275.72
2022-08-05T17:50:00.289Z,102276.31
2022-08-05T17:52:34.642Z,102274.59
2022-08-05T17:55:20.120Z,102284.84
2022-08-05T17:57:50.050Z,102274.34
2022-08-05T18:00:17.358Z,102291.38
2022-08-05T18:02:46.678Z,102288.47
2022-08-05T18:05:16.675Z,102285.41
2022-08-05T18:07:43.922Z,102296.59
2022-08-05T18:10:14.125Z,102298.66
2022-08-05T18:12:48.626Z,102301.16
2022-08-05T18:15:15.066Z,102312.25
2022-08-05T18:18:00.133Z,102307.03
2022-08-05T18:20:29.420Z,102310.81
2022-08-05T18:23:00.589Z,102316.91
2022-08-05T18:25:39.249Z,102308.34
2022-08-05T18:28:06.869Z,102329.81
2022-08-05T18:30:34.282Z,102326.50
2022-08-05T18:33:01.372Z,102327.16
2022-08-05T18:36:00.817Z,102337.66
2022-08-05T18:38:16.442Z,102336.81
2022-08-05T18:41:56.033Z,102331.97
2022-08-05T18:43:37.939Z,102343.28
2022-08-05T18:46:06.878Z,102344.09
2022-08-05T18:48:41.601Z,102348.09
2022-08-05T18:52:05.557Z,102344.75
2022-08-05T18:54:14.103Z,102342.88
2022-08-05T18:56:40.515Z,102351.25
2022-08-05T18:59:41.864Z,102352.31
2022-08-05T19:01:57.187Z,102352.53
2022-08-05T19:04:24.690Z,102358.41
2022-08-05T19:06:51.713Z,102362.41
2022-08-05T19:09:20.125Z,102357.78
2022-08-05T19:12:00.327Z,102365.53
2022-08-05T19:14:52.098Z,102365.97
2022-08-05T19:17:14.820Z,102361.38
2022-08-05T19:19:46.862Z,102358.22
2022-08-05T19:22:17.248Z,102360.97
2022-08-05T19:24:54.585Z,102369.78
2022-08-05T19:27:22.875Z,102369.13
2022-08-05T19:29:49.910Z,102365.34
2022-08-05T19:32:16.331Z,102376.72
2022-08-05T19:34:54.702Z,102375.84
2022-08-05T19:37:29.781Z,102386.97
2022-08-05T19:40:01.966Z,102383.41
2022-08-05T19:42:35.349Z,102385.72
2022-08-05T19:45:03.085Z,102388.88
2022-08-05T19:47:33.062Z,102392.19
2022-08-05T19:50:00.956Z,102394.09
2022-08-05T19:52:30.792Z,102400.38
2022-08-05T19:56:11.614Z,102407.75
2022-08-05T19:58:19.704Z,102410.47
2022-08-05T20:00:40.968Z,102411.72
2022-08-05T20:03:09.091Z,102405.00
2022-08-05T20:05:43.268Z,102413.41
2022-08-05T20:08:16.863Z,102412.56
2022-08-05T20:10:43.372Z,102420.94
2022-08-05T20:13:10.830Z,102418.84
2022-08-05T20:15:52.049Z,102429.53
2022-08-05T20:18:33.253Z,102428.28
2022-08-05T20:21:04.635Z,102433.94
2022-08-05T20:23:40.033Z,102432.06
2022-08-05T20:26:24.541Z,102446.75
2022-08-05T20:28:56.849Z,102448.84
2022-08-05T20:31:28.578Z,102448.03
2022-08-05T20:34:10.493Z,102450.50
2022-08-05T20:36:36.900Z,102450.53
2022-08-05T20:39:05.769Z,102452.16
2022-08-05T20:41:43.775Z,102454.06
2022-08-05T20:44:17.535Z,102456.38
2022-08-05T20:46:46.833Z,102451.75
2022-08-05T20:49:14.031Z,102456.38
2022-08-05T20:51:41.522Z,102461.00
2022-08-05T20:54:14.240Z,102468.34
2022-08-05T20:56:42.462Z,102464.13
2022-08-05T20:59:13.962Z,102461.81
2022-08-05T21:01:45.642Z,102463.69
2022-08-05T21:04:12.196Z,102467.06
2022-08-05T21:06:45.797Z,102467.06
2022-08-05T21:09:14.638Z,102469.81
2022-08-05T21:12:09.346Z,102472.53
2022-08-05T21:14:29.002Z,102469.81
2022-08-05T21:17:01.620Z,102474.59
2022-08-05T21:19:29.722Z,102472.09
2022-08-05T21:22:15.465Z,102471.44
2022-08-05T21:24:44.958Z,102467.06
2022-08-05T21:27:15.529Z,102474.63
2022-08-05T21:29:43.006Z,102474.19
2022-08-05T21:32:19.836Z,102473.31
2022-08-05T21:35:06.931Z,102472.47
2022-08-05T21:37:33.223Z,102477.31
2022-08-05T21:40:06.354Z,102476.66
2022-08-05T21:42:44.871Z,102482.31
2022-08-05T21:45:25.223Z,102477.94
2022-08-05T21:48:01.637Z,102484.63
2022-08-05T21:50:33.614Z,102486.50
2022-08-05T21:53:08.536Z,102482.09
2022-08-05T21:56:04.505Z,102485.44
2022-08-05T21:58:32.149Z,102497.38
2022-08-05T22:00:59.311Z,102485.63
2022-08-05T22:03:48.806Z,102497.59
2022-08-05T22:06:12.211Z,102492.13
2022-08-05T22:08:42.375Z,102494.03
2022-08-05T22:11:11.813Z,102499.03
2022-08-05T22:14:31.291Z,102503.00
2022-08-05T22:16:42.137Z,102501.31
2022-08-05T22:19:56.100Z,102496.50
2022-08-05T22:22:01.338Z,102492.28
2022-08-05T22:24:52.460Z,102493.31
2022-08-05T22:28:09.595Z,102493.13
2022-08-05T22:30:24.883Z,102496.44
2022-08-05T22:32:59.539Z,102506.34
2022-08-05T22:35:26.154Z,102500.00
2022-08-05T22:37:58.008Z,102509.06
2022-08-05T22:40:26.997Z,102497.72
2022-08-05T22:42:58.133Z,102509.84
2022-08-05T22:45:26.404Z,102509.00
2022-08-05T22:47:57.009Z,102510.06
2022-08-05T22:50:26.749Z,102516.53
2022-08-05T22:52:55.206Z,102523.25
2022-08-05T22:55:23.237Z,102521.56
2022-08-05T22:57:53.760Z,102525.13
2022-08-05T23:00:23.575Z,102521.75
2022-08-05T23:02:53.102Z,102522.78
2022-08-05T23:05:22.191Z,102523.38
2022-08-05T23:07:49.526Z,102528.38
2022-08-05T23:10:19.741Z,102534.22
2022-08-05T23:12:51.180Z,102533.78
2022-08-05T23:15:20.674Z,102540.47
2022-08-05T23:18:00.551Z,102542.53
2022-08-05T23:20:28.441Z,102542.94
2022-08-05T23:22:56.257Z,102551.31
2022-08-05T23:25:51.689Z,102549.41
2022-08-05T23:28:12.058Z,102549.63
2022-08-05T23:30:40.338Z,102557.81
2022-08-05T23:33:16.008Z,102560.69
2022-08-05T23:35:49.990Z,102562.97
2022-08-05T23:38:16.969Z,102564.22
2022-08-05T23:40:50.136Z,102565.66
2022-08-05T23:43:25.619Z,102559.78
2022-08-05T23:46:19.660Z,102564.97
2022-08-05T23:49:01.228Z,102565.38
2022-08-05T23:51:53.997Z,102563.88
2022-08-05T23:54:38.354Z,102569.72
2022-08-05T23:57:06.376Z,102573.66
